Flight Track Log - Related Links

Times and Time Zones

All times are in EDT time to prevent confusion due to time zone crossing. See the DAL1114 flight status page for this flight to view local times or setup timezone preferences in your user account.

Time Position Orientation Groundspeed Altitude Reporting Facility
EDT Latitude Longitude Course Direction KTS MPH feet Rate Location/Type
Thu 07:20:23 PM 40.8100 -111.9639 90° East 163 188 5,100  Level Salt Lake Center
Thu 07:21:18 PM 40.8572 -111.9736 351° North 194 223 6,600 1,626 Climbing Salt Lake Center
Thu 07:22:10 PM 40.9131 -111.9783 356° North 239 275 8,000 2,158 Climbing Salt Lake Center
Thu 07:23:00 PM 41.1138 -111.7609 124° Southeast  Level FlightAware Approximate
Thu 07:23:12 PM 40.9883 -111.9842 357° North 269 310 10,700  Level Salt Lake Center
Thu 07:24:00 PM 41.0305 -111.6360 133° Southeast  Level FlightAware Approximate
Thu 07:24:14 PM 41.0189 -111.9017 64° Northeast 272 313 13,300  Level Salt Lake Center
Thu 07:25:00 PM 41.0334 -111.4787 90° East  Level FlightAware Approximate
Thu 07:25:15 PM 41.0233 -111.7711 87° East 329 379 14,300  Level Salt Lake Center
Thu 07:26:17 PM 41.0275 -111.6306 88° East 382 440 15,500 1,500 Climbing Salt Lake Center
Thu 07:27:19 PM 41.0367 -111.4786 85° East 414 476 17,400 1,561 Climbing Salt Lake Center
Thu 07:28:20 PM 41.0381 -111.3222 89° East 424 488 18,700 1,415 Climbing Salt Lake Center
Thu 07:29:22 PM 41.0392 -111.1614 89° East 438 504 20,300 1,452 Climbing Salt Lake Center
Thu 07:30:24 PM 41.0406 -110.9942 89° East 451 519 21,700 1,597 Climbing Salt Lake Center
Thu 07:31:26 PM 41.0419 -110.8253 89° East 458 527 23,600 1,463 Climbing Salt Lake Center
Thu 07:32:27 PM 41.0422 -110.6236 90° East 458 527 24,700 829 Climbing Salt Lake Center
Thu 07:33:29 PM 41.0444 -110.4392 89° East 481 554 25,300 677 Climbing Salt Lake Center
Thu 07:34:31 PM 41.0436 -110.2625 90° East 496 571 26,100 1,113 Climbing Salt Lake Center
Thu 07:35:33 PM 41.0444 -110.0575 90° East 500 575 27,600 1,258 Climbing Salt Lake Center
Thu 07:36:35 PM 41.0439 -109.8839 90° East 497 572 28,700 1,171 Climbing Salt Lake Center
Thu 07:37:36 PM 41.0428 -109.6822 90° East 493 567 30,000 1,073 Climbing Salt Lake Center
Thu 07:38:38 PM 41.0422 -109.5103 90° East 493 567 30,900 919 Climbing Salt Lake Center
Thu 07:39:40 PM 41.0408 -109.3100 90° East 493 567 31,900 968 Climbing Salt Lake Center
Thu 07:40:42 PM 41.0397 -109.1394 90° East 489 563 32,900 1,113 Climbing Salt Lake Center
Thu 07:41:44 PM 41.0381 -108.9461 91° East 477 549 34,200 1,024 Climbing Salt Lake Center
Thu 07:42:45 PM 41.0358 -108.7814 91° East 472 543 35,000 390 Climbing Salt Lake Center
Thu 07:43:47 PM 41.0344 -108.6172 91° East 469 540 35,000  Level Salt Lake Center
Thu 07:44:49 PM 41.0322 -108.4261 91° East 467 537 35,000  Level Salt Lake Center
Thu 07:45:34 PM 41.0297 -108.2883 91° East 466 536 35,000  Level Denver Center
Thu 07:46:36 PM 40.9981 -108.1256 104° East 484 557 35,000  Level Denver Center
Thu 07:47:38 PM 40.9525 -107.9400 108° East 477 549 35,000  Level Denver Center
Thu 07:48:52 PM 40.9536 -107.7758 89° East 467 537 35,000  Level Denver Center
Thu 07:49:54 PM 40.9572 -107.5558 89° East 469 540 35,000  Level Denver Center
Thu 07:50:57 PM 40.9583 -107.3897 89° East 472 543 35,000  Level Denver Center
Thu 07:51:59 PM 40.9603 -107.1936 89° East 477 549 35,000  Level Denver Center
Thu 07:53:01 PM 40.9606 -107.0275 90° East 474 545 35,000  Level Denver Center
Thu 07:54:03 PM 40.9617 -106.8433 89° East 451 519 35,000  Level Denver Center
Thu 07:55:05 PM 40.9622 -106.6864 90° East 446 513 35,000  Level Denver Center
Thu 07:56:07 PM 40.9628 -106.5042 90° East 446 513 35,000  Level Denver Center
Thu 07:57:09 PM 40.9611 -106.3489 91° East 445 512 35,000  Level Denver Center
Thu 07:58:11 PM 40.9614 -106.1664 90° East 444 511 35,000  Level Denver Center
Thu 07:59:13 PM 40.9619 -106.0150 90° East 446 513 35,000  Level Denver Center
Thu 08:00:16 PM 40.9619 -105.8769 90° East 447 514 35,000  Level Denver Center
Thu 08:01:18 PM 40.9594 -105.6608 91° East 438 504 35,000  Level Denver Center
Thu 08:02:21 PM 40.9594 -105.4967 90° East 439 505 35,000  Level Denver Center
Thu 08:03:22 PM 40.9581 -105.3347 91° East 439 505 35,000  Level Denver Center
Thu 08:04:24 PM 40.9558 -105.1708 91° East 441 507 35,000  Level Denver Center
Thu 08:05:27 PM 40.9539 -105.0064 91° East 442 509 35,000  Level Denver Center
Thu 08:06:28 PM 40.9528 -104.8456 90° East 437 503 35,000  Level Denver Center
Thu 08:07:30 PM 40.9494 -104.6889 92° East 425 489 35,000  Level Denver Center
Thu 08:08:32 PM 40.9478 -104.5019 91° East 431 496 35,000  Level Denver Center
Thu 08:09:34 PM 40.9444 -104.3397 92° East 435 501 35,000  Level Denver Center
Thu 08:10:36 PM 40.9408 -104.1769 92° East 438 504 35,000  Level Denver Center
Thu 08:11:38 PM 40.9381 -104.0142 91° East 438 504 35,000  Level Denver Center
Thu 08:12:40 PM 40.9342 -103.8514 92° East 437 503 35,000  Level Denver Center
Thu 08:13:42 PM 40.9311 -103.6875 91° East 442 509 35,000  Level Denver Center
Thu 08:14:44 PM 40.9272 -103.5200 92° East 448 516 35,000  Level Denver Center
Thu 08:15:46 PM 40.9231 -103.3500 92° East 457 526 35,000  Level Denver Center
Thu 08:16:48 PM 40.9175 -103.1728 92° East 477 549 35,000  Level Denver Center
Thu 08:17:50 PM 40.9133 -102.9872 92° East 475 547 35,000  Level Denver Center
Thu 08:18:52 PM 40.8819 -102.7958 102° East 478 550 35,000  Level Denver Center
Thu 08:19:54 PM 40.8550 -102.6317 102° East 477 549 35,000  Level Denver Center
Thu 08:20:56 PM 40.8233 -102.4389 102° East 480 552 35,000  Level Denver Center
Thu 08:21:58 PM 40.7997 -102.2731 101° East 481 554 35,000 48 Level Denver Center
Thu 08:23:00 PM 40.7717 -102.0803 101° East 480 552 35,100  Climbing Denver Center
Thu 08:24:02 PM 40.7628 -101.9153 94° East 474 545 35,000 -49 Descending Denver Center
Thu 08:25:03 PM 40.7586 -101.7242 92° East 469 540 35,000  Level Denver Center
Thu 08:26:05 PM 40.7531 -101.5636 93° East 462 532 35,000  Level Denver Center
Thu 08:27:07 PM 40.7475 -101.3725 92° East 467 537 35,000  Level Denver Center
Thu 08:28:09 PM 40.7422 -101.2103 92° East 466 536 35,000  Level Denver Center
Thu 08:29:11 PM 40.7367 -101.0514 93° East 458 527 35,000 -48 Level Denver Center
Thu 08:30:13 PM 40.7297 -100.8653 93° East 461 531 34,900  Descending Denver Center
Thu 08:31:15 PM 40.7244 -100.6792 92° East 467 537 35,000 48 Climbing Denver Center
Thu 08:32:17 PM 40.7178 -100.5181 93° East 467 537 35,000  Level Denver Center
Thu 08:33:19 PM 40.7097 -100.3247 93° East 474 545 35,000  Level Denver Center
Thu 08:34:21 PM 40.7031 -100.1581 93° East 478 550 35,000  Level Denver Center
Thu 08:35:23 PM 40.6944 -99.9636 93° East 479 551 35,000  Level Denver Center
Thu 08:36:25 PM 40.6869 -99.7944 93° East 479 551 35,000  Level Denver Center
Thu 08:37:27 PM 40.6800 -99.6208 93° East 477 549 35,000  Level Denver Center
Thu 08:38:29 PM 40.6708 -99.4453 94° East 479 551 35,000  Level Denver Center
Thu 08:39:31 PM 40.6631 -99.2725 93° East 476 548 35,000  Level Denver Center
Thu 08:40:32 PM 40.6528 -99.0631 94° East 479 551 35,000  Level Denver Center
Thu 08:40:57 PM 40.6486 -98.9942 95° East 481 554 35,000  Level Minneapolis Center
Thu 08:41:59 PM 40.6392 -98.8211 94° East 479 551 35,000  Level Minneapolis Center
Thu 08:43:01 PM 40.6297 -98.6475 94° East 479 551 35,000  Level Minneapolis Center
Thu 08:44:03 PM 40.6203 -98.4728 94° East 481 554 35,000  Level Minneapolis Center
Thu 08:45:06 PM 40.6097 -98.2969 94° East 484 557 35,000  Level Minneapolis Center
Thu 08:46:08 PM 40.5975 -98.0861 94° East 483 556 35,000  Level Minneapolis Center
Thu 08:47:10 PM 40.5867 -97.9094 95° East 485 558 35,000  Level Minneapolis Center
Thu 08:48:12 PM 40.5750 -97.7325 95° East 487 560 35,000  Level Minneapolis Center
Thu 08:49:15 PM 40.5636 -97.5592 95° East 480 552 35,000  Level Minneapolis Center
Thu 08:50:17 PM 40.5528 -97.3858 95° East 477 549 35,000  Level Minneapolis Center
Thu 08:51:19 PM 40.5411 -97.1981 95° East 471 542 35,000  Level Minneapolis Center
Thu 08:52:21 PM 40.5294 -97.0267 95° East 470 541 35,000  Level Minneapolis Center
Thu 08:53:23 PM 40.5169 -96.8553 95° East 473 544 35,000  Level Minneapolis Center
Thu 08:54:25 PM 40.5019 -96.6503 95° East 472 543 35,000  Level Minneapolis Center
Thu 08:55:27 PM 40.4897 -96.4800 95° East 472 543 35,000  Level Minneapolis Center
Thu 08:56:29 PM 40.4767 -96.3103 96° East 471 542 35,000  Level Minneapolis Center
Thu 08:57:31 PM 40.4636 -96.1397 96° East 471 542 35,000  Level Minneapolis Center
Thu 08:58:33 PM 40.4514 -95.9678 95° East 473 544 35,000  Level Minneapolis Center
Thu 08:59:35 PM 40.4369 -95.7953 96° East 477 549 35,000  Level Minneapolis Center
Thu 09:00:37 PM 40.4206 -95.5914 96° East 472 543 35,000  Level Minneapolis Center
Thu 09:01:39 PM 40.4067 -95.4217 96° East 471 542 35,000  Level Minneapolis Center
Thu 09:02:41 PM 40.3931 -95.2525 96° East 470 541 35,000  Level Minneapolis Center
Thu 09:03:43 PM 40.3792 -95.0819 96° East 470 541 35,000  Level Minneapolis Center
Thu 09:04:46 PM 40.3619 -94.8942 97° East 470 541 35,000  Level Minneapolis Center
Thu 09:05:48 PM 40.3486 -94.7447 97° East 467 537 35,000  Level Minneapolis Center
Thu 09:06:50 PM 40.3311 -94.5453 97° East 462 532 35,000  Level Minneapolis Center
Thu 09:07:52 PM 40.3197 -94.3950 96° East 463 533 35,000  Level Minneapolis Center
Thu 09:08:48 PM 40.3258 -94.2164 87° East 471 542 35,000 407 Level Kansas City Center
Thu 09:09:50 PM 40.3300 -94.0478 88° East 480 552 35,800 732 Climbing Kansas City Center
Thu 09:10:51 PM 40.3353 -93.8750 88° East 480 552 36,500 585 Climbing Kansas City Center
Thu 09:11:53 PM 40.3411 -93.6700 88° East 473 544 37,000 242 Climbing Kansas City Center
Thu 09:12:55 PM 40.3467 -93.5000 87° East 471 542 37,000  Level Kansas City Center
Thu 09:13:56 PM 40.3506 -93.3286 88° East 473 544 37,000  Level Kansas City Center
Thu 09:14:58 PM 40.3581 -93.1592 87° East 470 541 37,000  Level Kansas City Center
Thu 09:16:00 PM 40.3628 -92.9806 88° East 462 532 37,000  Level Kansas City Center
Thu 09:17:01 PM 40.3667 -92.8200 88° East 460 529 37,000  Level Kansas City Center
Thu 09:18:03 PM 40.3719 -92.6431 88° East 463 533 37,000  Level Kansas City Center
Thu 09:19:04 PM 40.3733 -92.4733 89° East 465 535 37,000  Level Kansas City Center
Thu 09:20:06 PM 40.3775 -92.3072 88° East 466 536 37,000  Level Kansas City Center
Thu 09:21:08 PM 40.3800 -92.1397 89° East 462 532 37,000  Level Kansas City Center
Thu 09:22:09 PM 40.3822 -91.9375 89° East 465 535 37,000  Level Kansas City Center
Thu 09:23:11 PM 40.3842 -91.7692 89° East 466 536 37,000  Level Kansas City Center
Thu 09:24:13 PM 40.3864 -91.6003 89° East 466 536 37,000  Level Kansas City Center
Thu 09:25:14 PM 40.3878 -91.4325 89° East 465 535 37,000  Level Kansas City Center
Thu 09:26:16 PM 40.3906 -91.2539 89° East 469 540 37,000  Level Kansas City Center
Thu 09:27:17 PM 40.3917 -91.0842 89° East 467 537 37,000  Level Kansas City Center
Thu 09:28:19 PM 40.3944 -90.9136 89° East 469 540 37,000  Level Kansas City Center
Thu 09:29:20 PM 40.3944 -90.7431 90° East 470 541 37,000  Level Kansas City Center
Thu 09:30:22 PM 40.3953 -90.5383 90° East 469 540 37,000  Level Kansas City Center
Thu 09:31:24 PM 40.3961 -90.3675 90° East 471 542 37,000  Level Kansas City Center
Thu 09:32:31 PM 40.3961 -90.1964 90° East 472 543 37,000  Level Chicago Center
Thu 09:33:33 PM 40.3953 -89.9908 90° East 475 547 37,000  Level Chicago Center
Thu 09:34:35 PM 40.3944 -89.8194 90° East 476 548 37,000  Level Chicago Center
Thu 09:35:37 PM 40.3944 -89.6478 90° East 477 549 37,000  Level Chicago Center
Thu 09:36:39 PM 40.3928 -89.4756 91° East 476 548 37,000  Level Chicago Center
Thu 09:37:41 PM 40.3925 -89.3039 90° East 475 547 37,000  Level Chicago Center
Thu 09:38:43 PM 40.3908 -89.1347 91° East 470 541 37,000 -48 Level Chicago Center
Thu 09:39:45 PM 40.3892 -88.9308 91° East 468 539 36,900  Descending Chicago Center
Thu 09:40:46 PM 40.3875 -88.7592 91° East 472 543 37,000 49 Climbing Chicago Center
Thu 09:41:48 PM 40.3847 -88.5856 91° East 479 551 37,000  Level Chicago Center
Thu 09:42:50 PM 40.3833 -88.4064 91° East 479 551 37,000  Level Chicago Center
Thu 09:43:52 PM 40.3803 -88.2342 91° East 479 551 37,000  Level Chicago Center
Thu 09:44:54 PM 40.3778 -88.0661 91° East 471 542 37,000  Level Chicago Center
Thu 09:45:56 PM 40.3736 -87.8644 91° East 467 537 37,000  Level Chicago Center
Thu 09:46:58 PM 40.3706 -87.6908 91° East 472 543 37,000  Level Chicago Center
Thu 09:47:59 PM 40.3667 -87.5181 92° East 477 549 37,000  Level Chicago Center
Thu 09:49:01 PM 40.3631 -87.3436 91° East 473 544 37,000  Level Chicago Center
Thu 09:50:03 PM 40.3586 -87.1733 92° East 469 540 37,000  Level Chicago Center
Thu 09:51:05 PM 40.3533 -87.0050 92° East 465 535 37,000  Level Chicago Center
Thu 09:52:06 PM 40.3492 -86.8378 92° East 460 529 37,000  Level Chicago Center
Thu 09:53:08 PM 40.3428 -86.6372 92° East 459 528 37,000  Level Chicago Center
Thu 09:54:10 PM 40.3381 -86.4694 92° East 459 528 37,000  Level Chicago Center
Thu 09:55:11 PM 40.3325 -86.3022 92° East 459 528 37,000  Level Chicago Center
Thu 09:56:13 PM 40.3272 -86.1314 92° East 466 536 37,000  Level Chicago Center
Thu 09:57:15 PM 40.3200 -85.9639 93° East 461 531 37,000  Level Chicago Center
Thu 09:58:17 PM 40.3147 -85.7953 92° East 462 532 37,000  Level Chicago Center
Thu 09:59:18 PM 40.3075 -85.6250 93° East 467 537 37,000  Level Chicago Center
Thu 10:00:20 PM 40.3011 -85.4558 93° East 467 537 37,000  Level Chicago Center
Thu 10:01:22 PM 40.2922 -85.2536 93° East 464 534 37,000  Level Chicago Center
Thu 10:02:27 PM 40.2833 -85.0842 94° East 465 535 37,000  Level Indianapolis Center
Thu 10:03:28 PM 40.2764 -84.9169 93° East 461 531 37,000  Level Indianapolis Center
Thu 10:04:29 PM 40.2697 -84.7450 93° East 462 532 37,000 -49 Level Indianapolis Center
Thu 10:05:31 PM 40.2614 -84.5769 94° East 458 527 36,900 -49 Descending Indianapolis Center
Thu 10:06:32 PM 40.2522 -84.4106 94° East 455 524 36,900  Level Indianapolis Center
Thu 10:07:33 PM 40.2442 -84.2425 94° East 458 527 36,900 49 Level Indianapolis Center
Thu 10:08:34 PM 40.2511 -84.0750 87° East 460 529 37,000 49 Climbing Indianapolis Center
Thu 10:09:36 PM 40.2728 -83.9069 80° East 463 533 37,000 -49 Level Indianapolis Center
Thu 10:10:37 PM 40.2636 -83.7386 94° East 459 528 36,900 -49 Descending Indianapolis Center
Thu 10:11:38 PM 40.2514 -83.5692 95° East 460 529 36,900 49 Level Indianapolis Center
Thu 10:12:40 PM 40.2383 -83.4000 96° East 460 529 37,000 49 Climbing Indianapolis Center
Thu 10:13:41 PM 40.2436 -83.2281 88° East 466 536 37,000  Level Indianapolis Center
Thu 10:14:42 PM 40.2456 -83.0569 89° East 468 539 37,000  Level Indianapolis Center
Thu 10:15:44 PM 40.2269 -82.8906 98° East 458 527 37,000 -49 Level Indianapolis Center
Thu 10:16:45 PM 40.2042 -82.6978 99° East 457 526 36,900 -49 Descending Indianapolis Center
Thu 10:17:46 PM 40.1844 -82.5331 99° East 455 524 36,900 49 Level Indianapolis Center
Thu 10:18:47 PM 40.1656 -82.3672 98° East 457 526 37,000 49 Climbing Indianapolis Center
Thu 10:19:49 PM 40.1450 -82.2022 99° East 456 525 37,000 -49 Level Indianapolis Center
Thu 10:20:50 PM 40.1244 -82.0383 99° East 453 521 36,900  Descending Indianapolis Center
Thu 10:21:51 PM 40.1042 -81.8731 99° East 456 525 37,000 49 Climbing Indianapolis Center
Thu 10:22:52 PM 40.0844 -81.7208 100° East 459 528 37,000  Level Indianapolis Center
Thu 10:23:54 PM 40.0639 -81.5561 99° East 457 526 37,000  Level Indianapolis Center
Thu 10:24:55 PM 40.0422 -81.3886 100° East 464 534 37,000  Level Indianapolis Center
Thu 10:25:56 PM 40.0175 -81.1950 99° East 462 532 37,000  Level Indianapolis Center
Thu 10:26:35 PM 40.0078 -81.0872 97° East 452 520 37,000  Level Cleveland Center
Thu 10:27:35 PM 39.9853 -80.9381 101° East 452 520 37,000  Level Cleveland Center
Thu 10:28:35 PM 39.9650 -80.7728 99° East 457 526 37,000  Level Cleveland Center
Thu 10:29:35 PM 39.9422 -80.6075 100° East 462 532 37,000  Level Cleveland Center
Thu 10:30:35 PM 39.9192 -80.4422 100° East 462 532 37,000  Level Cleveland Center
Thu 10:31:35 PM 39.8978 -80.2772 100° East 467 537 37,000  Level Cleveland Center
Thu 10:32:35 PM 39.8722 -80.1125 101° East 467 537 37,000  Level Cleveland Center
Thu 10:33:35 PM 39.8422 -79.9450 103° East 467 537 37,000 -100 Level Cleveland Center
Thu 10:34:35 PM 39.8100 -79.7831 104° East 467 537 36,800 -812 Descending Cleveland Center
Thu 10:35:48 PM 39.7703 -79.5897 105° East 455 524 35,200 -2,382 Descending Washington Center
Thu 10:36:46 PM 39.7339 -79.4258 106° East 468 539 31,600 -3,661 Descending Washington Center
Thu 10:37:46 PM 39.7017 -79.2622 104° East 468 539 28,000 -3,124 Descending Washington Center
Thu 10:38:47 PM 39.6667 -79.1014 106° East 463 533 25,300 -1,884 Descending Washington Center
Thu 10:39:47 PM 39.6258 -78.9244 107° East 462 532 24,200 -1,664 Descending Washington Center
Thu 10:40:46 PM 39.5928 -78.7692 105° East 462 532 22,000 -1,950 Descending Washington Center
Thu 10:41:47 PM 39.5589 -78.6225 107° East 444 511 20,300 -1,686 Descending Washington Center
Thu 10:42:47 PM 39.5272 -78.4758 106° East 432 497 18,600 -1,488 Descending Washington Center
Thu 10:43:48 PM 39.4969 -78.3375 106° East 419 482 17,300 -1,400 Descending Washington Center
Thu 10:44:47 PM 39.4667 -78.2019 106° East 401 461 15,800 -1,160 Descending Washington Center
Thu 10:45:47 PM 39.4506 -78.0722 99° East 378 435 15,000 -1,279 Descending Washington Center
Thu 10:46:49 PM 39.4508 -77.9539 90° East 350 403 13,200 -1,513 Descending Washington Center
Thu 10:47:46 PM 39.4489 -77.8356 91° East 331 381 12,000 -915 Descending Washington Center
Thu 10:48:47 PM 39.4486 -77.7361 90° East 326 375 11,400 -496 Descending Washington Center
Thu 10:49:47 PM 39.4464 -77.6261 91° East 315 362 11,000 -202 Descending Washington Center
Thu 10:50:46 PM 39.4461 -77.5239 90° East 290 334 11,000  Level Washington Center
Thu 10:51:46 PM 39.4456 -77.4217 90° East 279 321 11,000 -275 Level Washington Center
Thu 10:52:35 PM 39.4500 -77.3333 86° East 276 318 10,500 -1,175 Descending Potomac TRACON
Thu 10:53:23 PM 39.4333 -77.2500 104° East 277 319 9,100 -1,579 Descending Potomac TRACON
Thu 10:54:29 PM 39.4167 -77.1500 102° East 274 315 7,500 -1,429 Descending Potomac TRACON
Thu 10:55:29 PM 39.4000 -77.0500 102° East 261 300 6,100 -1,316 Descending Potomac TRACON
Thu 10:56:23 PM 39.3667 -76.9833 123° Southeast 248 285 5,000 -1,167 Descending Potomac TRACON
Thu 10:57:17 PM 39.3333 -76.9167 123° Southeast 229 264 4,000 -857 Descending Potomac TRACON
Thu 10:58:29 PM 39.3167 -76.8500 108° East 190 219 3,200 -667 Descending Potomac TRACON

Login

Don't have an account? Register now (free) for customized features, flight alerts, and more!